Time;durP1;ratioP1;P1;durP2;ratioP2;P2;SDS_P1;SDS_P2;PMS_P1;PMS_P2;Temp;Humidity;BMP_temperature;BMP_pressure;BME280_temperature;BME280_humidity;BME280_pressure;Samples;Min_cycle;Max_cycle;Signal;HPM_P1;HPM_P2
2023/12/10 00:02:20;;;;;;;32.60;4.20;;;;;;;12.02;71.30;99732.78;5010737;28;20037;-47
2023/12/10 00:04:46;;;;;;;30.15;3.88;;;;;;;11.88;72.09;99754.72;5011267;28;20121;-46
2023/12/10 00:07:11;;;;;;;35.78;4.57;;;;;;;11.67;72.45;99740.94;5010952;28;20096;-44
2023/12/10 00:09:36;;;;;;;33.25;4.07;;;;;;;11.82;72.50;99744.34;5010863;28;20483;-45
2023/12/10 00:12:02;;;;;;;30.85;4.20;;;;;;;11.80;72.63;99746.97;5011112;28;20511;-44
2023/12/10 00:14:28;;;;;;;30.27;3.90;;;;;;;12.01;71.96;99728.47;5010590;28;20058;-46
2023/12/10 00:16:53;;;;;;;24.42;3.40;;;;;;;11.83;71.95;99739.13;5010790;28;20044;-48
2023/12/10 00:19:19;;;;;;;30.77;4.40;;;;;;;12.01;71.99;99731.09;5010500;28;20065;-46
2023/12/10 00:21:44;;;;;;;22.50;3.40;;;;;;;11.98;71.92;99744.16;5010519;28;20095;-43
2023/12/10 00:24:09;;;;;;;30.45;3.75;;;;;;;11.77;71.46;99741.78;5010634;28;20068;-44
2023/12/10 00:26:35;;;;;;;32.33;3.80;;;;;;;11.93;69.44;99738.13;5009994;28;20034;-48
2023/12/10 00:29:00;;;;;;;28.33;3.45;;;;;;;11.84;70.54;99742.56;5010363;28;20357;-45
2023/12/10 00:31:26;;;;;;;24.83;3.58;;;;;;;12.02;69.85;99731.94;5009921;28;20037;-46
2023/12/10 00:33:51;;;;;;;24.95;3.55;;;;;;;12.04;69.25;99775.44;5010742;28;20060;-48
2023/12/10 00:36:18;;;;;;;26.77;4.05;;;;;;;11.53;68.92;99752.38;5010019;28;20044;-48
2023/12/10 00:38:45;;;;;;;23.30;3.05;;;;;;;11.97;68.39;99742.44;5010444;28;20033;-47
2023/12/10 00:41:11;;;;;;;26.95;4.07;;;;;;;11.85;68.99;99742.56;5010008;28;20473;-43
2023/12/10 00:43:37;;;;;;;23.60;3.50;;;;;;;11.71;69.00;99750.47;5009811;28;20069;-44
2023/12/10 00:46:04;;;;;;;29.10;3.65;;;;;;;11.71;67.51;99758.31;5010131;28;20123;-45
2023/12/10 00:48:29;;;;;;;19.20;3.72;;;;;;;11.97;67.35;99750.25;5009793;28;20046;-46
2023/12/10 00:50:54;;;;;;;27.95;3.53;;;;;;;11.76;66.08;99753.09;5010162;28;20061;-45
2023/12/10 00:53:20;;;;;;;31.38;3.92;;;;;;;11.97;66.43;99760.72;5009882;28;20030;-49
2023/12/10 00:55:46;;;;;;;30.27;3.40;;;;;;;12.26;64.68;99739.50;5010359;28;20069;-45
2023/12/10 00:58:13;;;;;;;29.67;3.47;;;;;;;11.99;65.50;99761.56;5010108;28;20063;-44
2023/12/10 01:00:39;;;;;;;23.48;3.72;;;;;;;12.04;62.76;99767.63;5009558;28;20041;-46
2023/12/10 01:03:07;;;;;;;28.00;3.33;;;;;;;12.95;62.04;99761.28;5010004;28;20460;-45
2023/12/10 01:05:32;;;;;;;21.15;3.22;;;;;;;12.54;61.56;99769.66;5009735;28;20156;-49
2023/12/10 01:07:57;;;;;;;28.23;3.83;;;;;;;12.20;62.31;99765.69;5010026;28;20708;-46
2023/12/10 01:10:23;;;;;;;26.25;3.67;;;;;;;12.35;61.63;99773.38;5009522;28;20033;-47
2023/12/10 01:12:48;;;;;;;24.52;3.45;;;;;;;12.40;61.00;99768.09;5010144;28;20120;-47
2023/12/10 01:15:14;;;;;;;25.92;3.95;;;;;;;12.30;61.01;99769.94;5009729;28;20042;-45
2023/12/10 01:17:39;;;;;;;19.88;3.03;;;;;;;12.91;59.64;99777.03;5007827;28;20476;-48
2023/12/10 01:20:05;;;;;;;32.03;4.25;;;;;;;12.95;59.39;99765.63;5009500;28;20515;-45
2023/12/10 01:22:31;;;;;;;24.08;4.10;;;;;;;12.58;59.76;99770.47;5009359;28;20121;-46
2023/12/10 01:24:57;;;;;;;27.88;3.70;;;;;;;12.60;60.38;99777.44;5009776;28;20188;-46
2023/12/10 01:27:23;;;;;;;31.80;3.58;;;;;;;12.57;59.50;99772.22;5009216;28;20030;-46
2023/12/10 01:29:48;;;;;;;25.55;3.50;;;;;;;12.92;58.69;99790.09;5010030;28;20451;-45
2023/12/10 01:32:13;;;;;;;26.70;3.97;;;;;;;12.51;58.99;99794.97;5009818;28;20038;-50
2023/12/10 01:34:41;;;;;;;23.67;3.22;;;;;;;12.90;58.40;99789.25;5009318;28;20531;-45
2023/12/10 01:37:07;;;;;;;27.67;3.50;;;;;;;12.77;58.64;99768.50;5010088;28;20037;-45
2023/12/10 01:39:33;;;;;;;25.10;3.40;;;;;;;12.70;59.28;99808.69;5009461;28;20079;-47
2023/12/10 01:41:58;;;;;;;26.13;3.33;;;;;;;12.50;59.96;99806.34;5009481;28;20034;-46
2023/12/10 01:44:24;;;;;;;26.10;3.83;;;;;;;12.65;60.21;99808.75;5009472;28;20030;-48
2023/12/10 01:46:50;;;;;;;20.30;3.05;;;;;;;12.68;59.61;99798.28;5009689;28;20484;-46
2023/12/10 01:49:17;;;;;;;24.65;3.67;;;;;;;12.45;59.14;99793.28;5009838;28;20038;-46
2023/12/10 01:51:44;;;;;;;20.40;3.30;;;;;;;12.59;60.54;99816.66;4991444;28;20026;-46
2023/12/10 01:54:21;;;;;;;32.92;3.92;;;;;;;12.31;63.01;99786.50;5007979;28;20045;-45
2023/12/10 01:56:50;;;;;;;23.63;3.65;;;;;;;12.25;63.03;99807.47;5007691;28;20030;-48
2023/12/10 01:59:18;;;;;;;30.48;4.68;;;;;;;12.21;63.49;99809.22;5012041;28;20055;-45
2023/12/10 02:01:45;;;;;;;35.00;4.05;;;;;;;12.25;62.72;99821.41;5012884;28;20026;-50
2023/12/10 02:04:11;;;;;;;27.60;3.42;;;;;;;12.13;62.08;99902.53;5012037;28;20062;-49
2023/12/10 02:06:37;;;;;;;30.88;3.85;;;;;;;12.53;61.59;99819.34;5012601;28;20129;-46
2023/12/10 02:09:09;;;;;;;23.42;3.47;;;;;;;12.49;62.72;99821.16;5011831;28;20193;-44
2023/12/10 02:11:35;;;;;;;30.17;4.22;;;;;;;12.29;63.66;99830.06;5011188;28;20026;-47
2023/12/10 02:14:00;;;;;;;31.98;5.07;;;;;;;12.21;64.77;99835.38;4995024;28;20038;-46
2023/12/10 02:16:26;;;;;;;31.73;3.60;;;;;;;12.12;65.23;99853.75;5012844;28;20061;-45
2023/12/10 02:18:52;;;;;;;29.95;4.38;;;;;;;12.07;66.51;99868.63;5013305;28;20041;-45
2023/12/10 02:21:18;;;;;;;29.45;4.00;;;;;;;11.88;67.46;99857.44;5012551;28;20042;-44
2023/12/10 02:24:03;;;;;;;21.30;3.70;;;;;;;11.74;66.40;99864.50;5011528;28;20038;-48
2023/12/10 02:26:29;;;;;;;31.52;4.22;;;;;;;11.94;66.69;99859.16;5012466;28;20510;-45
2023/12/10 02:28:55;;;;;;;25.35;3.35;;;;;;;12.03;66.83;99869.50;5011947;28;20096;-44
2023/12/10 02:31:20;;;;;;;28.15;4.28;;;;;;;12.03;66.01;99866.88;5012039;28;20392;-43
2023/12/10 02:33:46;;;;;;;37.75;5.22;;;;;;;11.69;67.52;99892.38;5012029;28;20038;-45
2023/12/10 02:36:12;;;;;;;31.08;4.03;;;;;;;11.82;67.21;99875.78;5013467;28;20068;-46
2023/12/10 02:38:37;;;;;;;29.73;3.63;;;;;;;12.01;67.44;99874.75;5012276;28;20473;-44
2023/12/10 02:41:03;;;;;;;27.95;4.80;;;;;;;12.11;67.25;99884.25;5010902;28;20064;-45
2023/12/10 02:43:28;;;;;;;33.50;4.47;;;;;;;11.50;68.45;99909.91;5010379;28;20037;-49
2023/12/10 02:45:54;;;;;;;33.83;4.38;;;;;;;11.75;68.52;99893.22;5012273;28;20034;-46
2023/12/10 02:48:21;;;;;;;35.85;4.45;;;;;;;11.97;68.19;99906.13;5011682;28;20075;-48
2023/12/10 02:50:48;;;;;;;30.05;4.00;;;;;;;11.94;67.59;99898.31;5012089;28;20034;-49
2023/12/10 02:53:14;;;;;;;32.53;4.78;;;;;;;11.67;68.41;99928.06;5012343;28;20092;-47
2023/12/10 02:55:39;;;;;;;32.58;4.30;;;;;;;11.62;67.84;99901.13;5011773;28;20046;-47
2023/12/10 02:58:05;;;;;;;36.38;5.13;;;;;;;11.63;68.03;99945.50;5012411;28;20072;-44
2023/12/10 03:00:30;;;;;;;28.15;3.95;;;;;;;11.84;67.09;99944.50;5010293;28;20038;-45
2023/12/10 03:02:55;;;;;;;29.60;3.63;;;;;;;11.93;67.42;99910.50;5012000;28;20118;-46
2023/12/10 03:05:21;;;;;;;29.55;3.78;;;;;;;12.17;65.98;99935.56;5011751;28;20037;-46
2023/12/10 03:07:46;;;;;;;32.00;4.22;;;;;;;12.10;66.53;99950.44;5010551;28;20034;-46
2023/12/10 03:10:12;;;;;;;35.10;4.07;;;;;;;12.02;67.56;99956.56;5010560;28;20423;-49
2023/12/10 03:12:37;;;;;;;31.83;4.03;;;;;;;11.43;69.34;99944.72;5010008;28;20029;-44
2023/12/10 03:15:03;;;;;;;37.63;5.28;;;;;;;11.47;68.79;99950.78;5011744;28;20034;-44
2023/12/10 03:17:29;;;;;;;36.67;4.20;;;;;;;11.64;68.20;99965.50;5009698;28;20515;-45
2023/12/10 03:19:54;;;;;;;23.98;4.10;;;;;;;11.91;66.64;99963.63;5011638;28;20065;-47
2023/12/10 03:22:19;;;;;;;32.10;3.70;;;;;;;11.98;66.12;99949.66;5011847;28;20357;-44
2023/12/10 03:24:45;;;;;;;31.13;3.75;;;;;;;11.85;66.10;99971.50;5011522;28;20038;-44
2023/12/10 03:27:10;;;;;;;28.15;3.83;;;;;;;12.28;66.15;99987.75;5011683;28;20058;-47
2023/12/10 03:29:35;;;;;;;28.30;3.72;;;;;;;11.96;65.29;99981.00;5011229;28;20056;-44
2023/12/10 03:32:01;;;;;;;27.77;3.88;;;;;;;12.17;64.90;99985.22;5011548;28;20132;-44
2023/12/10 03:34:26;;;;;;;30.60;3.90;;;;;;;12.00;64.04;99972.28;5011097;28;20092;-47
2023/12/10 03:36:52;;;;;;;24.27;4.47;;;;;;;11.72;64.15;99978.50;5011258;28;20696;-45
2023/12/10 03:39:17;;;;;;;32.50;4.43;;;;;;;12.09;63.76;99993.09;5011016;28;20038;-46
2023/12/10 03:41:42;;;;;;;27.77;3.90;;;;;;;12.44;63.28;100007.69;5011472;28;20049;-44
2023/12/10 03:44:08;;;;;;;31.85;3.67;;;;;;;12.13;62.47;99973.06;5011282;28;20034;-47
2023/12/10 03:46:33;;;;;;;23.52;3.45;;;;;;;12.64;61.54;100010.09;5010825;28;20404;-48
2023/12/10 03:48:58;;;;;;;28.80;4.03;;;;;;;12.67;61.48;100003.13;5011300;28;20180;-45
2023/12/10 03:51:24;;;;;;;25.83;4.88;;;;;;;12.42;61.13;100020.75;5010644;28;20076;-45
2023/12/10 03:53:50;;;;;;;29.63;3.90;;;;;;;12.67;61.48;100017.94;5011164;28;20026;-44
2023/12/10 03:56:16;;;;;;;28.30;3.90;;;;;;;12.19;62.57;100015.69;5010933;28;20566;-46
2023/12/10 03:58:41;;;;;;;29.10;4.05;;;;;;;12.22;61.83;100030.47;5017350;28;20065;-45
2023/12/10 04:01:06;;;;;;;25.17;4.13;;;;;;;12.15;60.75;100016.59;5010421;28;20029;-47
2023/12/10 04:03:32;;;;;;;23.00;3.30;;;;;;;12.54;60.57;100045.94;5010435;28;20038;-49
2023/12/10 04:05:57;;;;;;;35.95;4.68;;;;;;;12.44;60.86;100054.72;5010991;28;20531;-45
2023/12/10 04:08:23;;;;;;;29.08;3.75;;;;;;;12.28;60.34;100034.78;5010497;28;20045;-45
2023/12/10 04:10:48;;;;;;;28.20;3.97;;;;;;;12.30;60.12;100033.91;5008789;28;20034;-49
2023/12/10 04:13:15;;;;;;;28.70;3.53;;;;;;;12.51;60.08;100067.72;5011125;28;20211;-45
2023/12/10 04:15:43;;;;;;;36.25;4.50;;;;;;;12.32;60.15;100066.13;5009871;28;20038;-45
2023/12/10 04:18:10;;;;;;;27.83;3.90;;;;;;;12.62;59.74;100069.41;5010750;28;20500;-45
2023/12/10 04:20:36;;;;;;;28.27;4.28;;;;;;;12.48;59.93;100074.75;5009821;28;20042;-44
2023/12/10 04:23:01;;;;;;;32.63;3.83;;;;;;;12.90;59.02;100090.09;5010604;28;20118;-44
2023/12/10 04:25:27;;;;;;;27.17;4.43;;;;;;;12.69;59.65;100084.16;5009775;28;20488;-46
2023/12/10 04:27:52;;;;;;;26.33;3.85;;;;;;;12.38;60.17;100094.00;5010829;28;20040;-46
2023/12/10 04:30:19;;;;;;;29.20;3.72;;;;;;;12.40;59.98;100102.66;5009750;28;20061;-47
2023/12/10 04:32:45;;;;;;;27.13;3.67;;;;;;;12.69;59.21;100085.03;5010683;28;20602;-45
2023/12/10 04:35:10;;;;;;;29.17;3.80;;;;;;;12.86;58.59;100098.84;5010847;28;20041;-44
2023/12/10 04:37:36;;;;;;;26.83;3.80;;;;;;;12.60;58.75;100100.78;5010238;28;20508;-45
2023/12/10 04:40:01;;;;;;;30.75;3.70;;;;;;;12.68;59.55;100116.44;5011638;28;20407;-49
2023/12/10 04:42:27;;;;;;;26.23;3.95;;;;;;;12.35;60.03;100113.16;5010915;28;20046;-45
2023/12/10 04:44:52;;;;;;;28.67;3.83;;;;;;;12.52;60.34;100099.97;5011253;28;20041;-47
2023/12/10 04:47:18;;;;;;;23.98;3.63;;;;;;;12.46;60.21;100129.63;5011440;28;20103;-47
2023/12/10 04:49:43;;;;;;;21.35;3.65;;;;;;;12.25;60.22;100119.31;5010831;28;20026;-45
2023/12/10 04:52:08;;;;;;;26.50;3.72;;;;;;;12.54;59.92;100140.94;5011342;28;20555;-45
2023/12/10 04:54:34;;;;;;;29.50;3.97;;;;;;;12.54;59.93;100150.50;5008489;28;20026;-45
2023/12/10 04:56:59;;;;;;;26.35;3.42;;;;;;;12.41;60.27;100169.75;5009791;28;20143;-48
2023/12/10 04:59:25;;;;;;;23.27;3.58;;;;;;;12.62;59.60;100151.34;5007816;28;20038;-44
2023/12/10 05:01:51;;;;;;;24.05;4.05;;;;;;;12.45;60.59;100169.72;5010040;28;20037;-45
2023/12/10 05:04:17;;;;;;;23.15;3.65;;;;;;;12.39;59.53;100168.88;5009215;28;20439;-45
2023/12/10 05:06:43;;;;;;;29.00;3.60;;;;;;;12.12;60.53;100170.78;5008985;28;20058;-46
2023/12/10 05:09:10;;;;;;;28.40;3.78;;;;;;;12.49;60.30;100179.31;5008909;28;20072;-44
2023/12/10 05:11:36;;;;;;;28.30;4.00;;;;;;;12.44;60.67;100190.66;5009794;28;20042;-46
2023/12/10 05:14:01;;;;;;;24.13;3.42;;;;;;;12.33;60.67;100205.50;5010177;28;20396;-45
2023/12/10 05:16:27;;;;;;;29.95;4.15;;;;;;;12.40;59.91;100212.44;5008157;28;20046;-45
2023/12/10 05:18:52;;;;;;;26.67;4.03;;;;;;;12.47;60.20;100212.44;5010208;28;20569;-45
2023/12/10 05:21:18;;;;;;;25.10;3.80;;;;;;;12.22;60.77;100202.06;4992056;28;20040;-48
2023/12/10 05:23:43;;;;;;;30.73;3.55;;;;;;;12.72;59.76;100217.53;5010206;28;20034;-48
2023/12/10 05:26:08;;;;;;;23.92;3.47;;;;;;;12.28;60.74;100233.41;4992573;28;20117;-46
2023/12/10 05:28:34;;;;;;;26.30;3.78;;;;;;;12.36;60.57;100221.19;5009849;28;20036;-44
2023/12/10 05:30:59;;;;;;;25.35;3.35;;;;;;;12.26;60.96;100215.13;5009851;28;20044;-44
2023/12/10 05:33:24;;;;;;;25.70;3.50;;;;;;;12.74;59.98;100231.47;5009819;28;20040;-44
2023/12/10 05:35:50;;;;;;;26.25;3.47;;;;;;;12.08;61.35;100223.03;5013337;28;20133;-45
2023/12/10 05:38:15;;;;;;;28.23;4.50;;;;;;;12.23;61.23;100254.34;5015280;28;20112;-46
2023/12/10 05:40:41;;;;;;;24.73;3.78;;;;;;;12.07;61.80;100240.47;5012799;28;20262;-46
2023/12/10 05:43:06;;;;;;;21.08;3.17;;;;;;;12.06;61.67;100245.69;5013499;28;20571;-46
2023/12/10 05:45:32;;;;;;;29.65;3.83;;;;;;;12.10;60.66;100252.63;5013006;28;20030;-45
2023/12/10 05:47:57;;;;;;;27.30;3.72;;;;;;;12.37;61.08;100277.84;5013275;28;20485;-45
2023/12/10 05:50:22;;;;;;;26.83;3.75;;;;;;;12.32;60.51;100285.66;5012688;28;20592;-47
2023/12/10 05:52:48;;;;;;;21.83;3.38;;;;;;;12.18;60.66;100283.13;5013154;28;20443;-44
2023/12/10 05:55:14;;;;;;;31.02;3.65;;;;;;;12.37;59.94;100301.34;5013120;28;20692;-45
2023/12/10 05:57:39;;;;;;;25.45;3.85;;;;;;;12.10;60.48;100292.72;5012859;28;20057;-46
2023/12/10 06:00:06;;;;;;;25.15;3.80;;;;;;;12.42;59.96;100296.97;5013310;28;20065;-44
2023/12/10 06:02:31;;;;;;;28.52;3.50;;;;;;;12.22;60.31;100315.31;5012493;28;20066;-44
2023/12/10 06:04:56;;;;;;;21.15;3.50;;;;;;;12.33;60.28;100300.47;5013238;28;20042;-43
2023/12/10 06:07:22;;;;;;;31.20;3.30;;;;;;;12.25;60.15;100336.25;5012784;28;20037;-46
2023/12/10 06:09:47;;;;;;;28.92;4.25;;;;;;;12.35;59.95;100316.16;5012761;28;20052;-44
2023/12/10 06:12:13;;;;;;;25.48;3.17;;;;;;;12.49;59.45;100319.63;5011663;28;20080;-49
2023/12/10 06:14:38;;;;;;;23.38;3.30;;;;;;;12.39;59.60;100334.44;5012240;28;20041;-46
2023/12/10 06:17:03;;;;;;;23.02;3.30;;;;;;;12.66;59.12;100340.47;4995457;28;20037;-53
2023/12/10 06:19:29;;;;;;;27.00;3.35;;;;;;;12.28;59.55;100348.41;5011366;28;20532;-47
2023/12/10 06:21:54;;;;;;;26.13;3.53;;;;;;;12.38;59.78;100358.84;5012585;28;20456;-45
2023/12/10 06:24:20;;;;;;;25.60;3.85;;;;;;;12.45;59.67;100350.09;5012687;28;20062;-44
2023/12/10 06:26:45;;;;;;;27.92;3.80;;;;;;;12.26;59.53;100377.16;5012699;28;20026;-45
2023/12/10 06:29:10;;;;;;;26.33;3.25;;;;;;;12.49;59.20;100366.69;5012942;28;20038;-47
2023/12/10 06:31:36;;;;;;;30.65;3.80;;;;;;;12.43;59.97;100375.41;5012301;28;20076;-44
2023/12/10 06:34:01;;;;;;;17.48;3.70;;;;;;;12.06;59.74;100378.94;5012963;28;20037;-48
2023/12/10 06:36:26;;;;;;;26.80;3.72;;;;;;;12.65;59.25;100389.28;5011904;28;20072;-48
2023/12/10 06:38:52;;;;;;;27.20;3.20;;;;;;;12.32;59.16;100397.22;5012487;28;20041;-44
2023/12/10 06:41:18;;;;;;;23.85;3.20;;;;;;;12.46;59.44;100378.00;5011571;28;20100;-44
2023/12/10 06:43:43;;;;;;;23.00;3.33;;;;;;;12.26;59.53;100394.63;5012330;28;20034;-45
2023/12/10 06:46:08;;;;;;;29.52;3.80;;;;;;;12.16;60.15;100397.22;5012566;28;20026;-48
2023/12/10 06:48:34;;;;;;;18.90;3.45;;;;;;;12.24;59.82;100389.38;5011885;28;20065;-45
2023/12/10 06:51:01;;;;;;;24.70;3.22;;;;;;;12.59;59.45;100413.72;5012110;28;20116;-46
2023/12/10 06:53:27;;;;;;;23.98;3.20;;;;;;;12.22;59.64;100421.59;5011835;28;20132;-50
2023/12/10 06:55:52;;;;;;;25.95;3.67;;;;;;;12.40;59.46;100414.63;5012376;28;20657;-46
2023/12/10 06:58:18;;;;;;;30.48;3.72;;;;;;;12.31;59.43;100413.78;5011695;28;20044;-47
2023/12/10 07:00:43;;;;;;;29.80;4.05;;;;;;;12.52;59.40;100413.72;5011602;28;20112;-47
2023/12/10 07:03:08;;;;;;;18.10;2.90;;;;;;;12.68;58.96;100419.81;5012214;28;20029;-45
2023/12/10 07:05:34;;;;;;;25.83;3.28;;;;;;;12.49;59.07;100417.22;5010063;28;20042;-44
2023/12/10 07:07:59;;;;;;;21.83;3.40;;;;;;;12.20;59.39;100418.97;5012041;28;20125;-46
2023/12/10 07:10:25;;;;;;;27.52;3.88;;;;;;;12.69;58.69;100413.69;5011315;28;20127;-44
2023/12/10 07:12:53;;;;;;;29.25;3.90;;;;;;;12.19;60.35;100431.22;5011717;28;20041;-46
2023/12/10 07:15:19;;;;;;;26.52;3.25;;;;;;;12.40;59.72;100425.06;5011120;28;20385;-46
2023/12/10 07:17:44;;;;;;;26.10;3.22;;;;;;;12.16;60.19;100432.94;5011836;28;20053;-46
2023/12/10 07:20:10;;;;;;;29.50;3.33;;;;;;;12.01;60.72;100454.72;5011521;28;20038;-45
2023/12/10 07:22:36;;;;;;;25.58;3.42;;;;;;;12.17;60.31;100460.81;5011009;28;20033;-44
2023/12/10 07:25:04;;;;;;;27.05;3.60;;;;;;;12.02;61.16;100473.84;5011478;28;20455;-49
2023/12/10 07:27:31;;;;;;;20.25;2.90;;;;;;;12.01;60.96;100473.00;5011337;28;20030;-47
2023/12/10 07:29:57;;;;;;;26.50;3.40;;;;;;;12.22;60.13;100484.31;5011345;28;20699;-45
2023/12/10 07:32:22;;;;;;;23.13;3.72;;;;;;;12.56;59.74;100476.47;5010011;28;20040;-50
2023/12/10 07:34:48;;;;;;;26.15;3.80;;;;;;;12.09;61.30;100494.75;5011148;28;20038;-45
2023/12/10 07:37:13;;;;;;;18.25;3.03;;;;;;;12.40;60.00;100493.03;5011309;28;20048;-45
2023/12/10 07:39:39;;;;;;;24.60;3.53;;;;;;;11.90;60.84;100519.13;5010845;28;20489;-50
2023/12/10 07:42:04;;;;;;;24.40;3.35;;;;;;;12.23;60.63;100505.25;5011131;28;20113;-46
2023/12/10 07:44:30;;;;;;;26.10;3.45;;;;;;;12.05;61.18;100510.44;5010658;28;20504;-46
2023/12/10 07:46:56;;;;;;;18.38;2.75;;;;;;;12.28;60.79;100526.16;5010648;28;20356;-46
2023/12/10 07:49:22;;;;;;;25.13;3.10;;;;;;;12.08;61.30;100515.66;5010525;28;20492;-46
2023/12/10 07:51:47;;;;;;;23.85;3.50;;;;;;;12.35;60.65;100523.53;5010419;28;20117;-48
2023/12/10 07:54:13;;;;;;;22.42;2.95;;;;;;;12.20;60.96;100515.69;5011036;28;20081;-45
2023/12/10 07:56:38;;;;;;;22.15;3.10;;;;;;;12.37;60.85;100515.72;5009967;28;20054;-48
2023/12/10 07:59:03;;;;;;;22.80;3.20;;;;;;;12.16;60.77;100519.16;5011036;28;20092;-44
2023/12/10 08:01:29;;;;;;;26.00;3.35;;;;;;;12.24;60.95;100519.19;5010572;28;20097;-45
2023/12/10 08:03:54;;;;;;;29.13;3.30;;;;;;;12.23;61.16;100520.03;5011121;28;20069;-47
2023/12/10 08:06:20;;;;;;;22.42;3.00;;;;;;;12.82;59.65;100525.25;5010396;28;20038;-44
2023/12/10 08:08:45;;;;;;;26.67;3.13;;;;;;;12.11;61.52;100531.34;5011044;28;20040;-46
2023/12/10 08:11:11;;;;;;;20.05;3.22;;;;;;;12.40;60.51;100529.63;5017229;28;20128;-47
2023/12/10 08:13:37;;;;;;;24.77;3.70;;;;;;;12.16;60.74;100546.16;5050823;28;20087;-44
2023/12/10 08:16:02;;;;;;;21.45;2.88;;;;;;;12.29;60.70;100547.06;5050770;28;20519;-48
2023/12/10 08:18:28;;;;;;;22.20;3.10;;;;;;;12.53;60.06;100556.66;5050611;28;20048;-44
2023/12/10 08:20:54;;;;;;;23.33;3.20;;;;;;;12.26;60.47;100544.44;5050394;28;20484;-45
2023/12/10 08:23:20;;;;;;;24.13;3.15;;;;;;;12.21;60.28;100554.00;5048967;28;20541;-46
2023/12/10 08:25:45;;;;;;;23.15;3.20;;;;;;;12.49;60.04;100561.03;5050713;28;20028;-44
2023/12/10 08:28:11;;;;;;;30.15;3.00;;;;;;;12.27;60.34;100555.75;5050747;28;20487;-44
2023/12/10 08:30:36;;;;;;;21.58;3.20;;;;;;;12.73;59.43;100574.97;5050139;28;20036;-47
2023/12/10 08:33:02;;;;;;;25.23;2.90;;;;;;;12.70;59.75;100569.72;5050913;28;20053;-45
2023/12/10 08:35:27;;;;;;;20.20;2.90;;;;;;;12.45;60.61;100567.13;5050558;28;20050;-48
2023/12/10 08:37:52;;;;;;;24.00;3.28;;;;;;;12.16;61.64;100560.97;5049668;28;20132;-44
2023/12/10 08:40:18;;;;;;;21.83;3.03;;;;;;;12.37;60.48;100568.00;5050614;28;20037;-47
2023/12/10 08:42:43;;;;;;;21.73;3.13;;;;;;;12.78;59.92;100568.00;5050218;28;20696;-46
2023/12/10 08:45:10;;;;;;;26.30;3.67;;;;;;;12.12;61.73;100567.97;5050709;28;20032;-44
2023/12/10 08:47:36;;;;;;;23.08;3.10;;;;;;;12.49;60.53;100591.53;5050615;28;20170;-49
2023/12/10 08:50:03;;;;;;;24.05;3.30;;;;;;;12.33;60.99;100582.78;5050311;28;20112;-43
2023/12/10 08:52:28;;;;;;;25.08;3.10;;;;;;;12.54;60.64;100581.94;5049590;28;20033;-47
2023/12/10 08:54:54;;;;;;;22.48;3.00;;;;;;;12.18;61.35;100578.41;5049793;28;20056;-45
2023/12/10 08:57:20;;;;;;;32.08;3.22;;;;;;;12.54;60.56;100584.56;5049727;28;20044;-46
2023/12/10 08:59:45;;;;;;;18.20;2.60;;;;;;;12.52;60.53;100594.13;5050009;28;20686;-46
2023/12/10 09:02:11;;;;;;;20.92;3.00;;;;;;;12.61;60.38;100594.16;5050028;28;20040;-46
2023/12/10 09:04:36;;;;;;;25.25;3.08;;;;;;;12.33;60.78;100600.22;5049694;28;20118;-51
2023/12/10 09:07:02;;;;;;;17.88;2.53;;;;;;;12.35;61.77;100596.75;5051237;28;20118;-45
2023/12/10 09:09:28;;;;;;;22.05;3.60;;;;;;;12.20;61.71;100620.22;5054013;28;20039;-49
2023/12/10 09:11:53;;;;;;;26.83;3.22;;;;;;;12.57;60.66;100626.38;5054103;28;20040;-47
2023/12/10 09:14:19;;;;;;;26.55;2.85;;;;;;;12.54;60.86;100622.03;5053187;28;20033;-45
2023/12/10 09:16:44;;;;;;;17.48;2.85;;;;;;;12.25;61.42;100609.78;5053627;28;20040;-45
2023/12/10 09:19:10;;;;;;;23.83;3.45;;;;;;;12.48;60.93;100608.97;5054163;28;20056;-44
2023/12/10 09:21:35;;;;;;;23.23;2.83;;;;;;;12.28;61.84;100613.28;5053118;28;20072;-45
2023/12/10 09:24:01;;;;;;;19.83;2.60;;;;;;;12.55;60.67;100618.56;5054380;28;20044;-45
2023/12/10 09:26:26;;;;;;;22.73;3.10;;;;;;;12.41;61.25;100616.78;5053050;28;20503;-44
2023/12/10 09:28:52;;;;;;;18.50;3.33;;;;;;;12.20;61.07;100621.09;5053488;28;20427;-46
2023/12/10 09:31:18;;;;;;;28.25;2.90;;;;;;;12.66;59.86;100641.22;5052746;28;20067;-48
2023/12/10 09:33:43;;;;;;;15.07;2.60;;;;;;;12.68;60.03;100637.75;5053397;28;20048;-46
2023/12/10 09:36:09;;;;;;;20.63;2.83;;;;;;;12.72;59.68;100630.78;5053316;28;20129;-41
2023/12/10 09:38:35;;;;;;;25.98;3.90;;;;;;;13.21;59.07;100648.25;5052965;28;20051;-48
2023/12/10 09:41:00;;;;;;;21.67;2.75;;;;;;;13.20;58.67;100653.47;5053299;28;20427;-49
2023/12/10 09:43:26;;;;;;;23.50;2.90;;;;;;;13.12;59.37;100652.56;5053177;28;20125;-48
2023/12/10 09:45:51;;;;;;;22.92;2.83;;;;;;;12.69;61.11;100649.06;5053959;28;20123;-48
2023/12/10 09:48:17;;;;;;;23.08;2.80;;;;;;;12.67;60.15;100653.44;5053662;28;20035;-45
2023/12/10 09:50:42;;;;;;;18.55;3.25;;;;;;;12.37;61.01;100649.03;5052975;28;20037;-47
2023/12/10 09:53:08;;;;;;;20.45;2.53;;;;;;;12.72;60.64;100656.94;5053837;28;20071;-45
2023/12/10 09:55:34;;;;;;;27.02;3.42;;;;;;;13.16;59.68;100654.38;5052647;28;20037;-45
2023/12/10 09:57:59;;;;;;;23.42;3.20;;;;;;;12.81;60.29;100647.34;5052125;28;20044;-46
2023/12/10 10:00:25;;;;;;;21.33;3.00;;;;;;;12.97;59.78;100650.84;5052118;28;20522;-45
2023/12/10 10:02:51;;;;;;;19.17;3.15;;;;;;;12.95;58.82;100657.81;5052600;28;20044;-50
2023/12/10 10:05:16;;;;;;;20.08;2.90;;;;;;;13.10;58.98;100647.38;5052778;28;20130;-44
2023/12/10 10:07:42;;;;;;;23.15;3.20;;;;;;;13.02;58.99;100649.97;5052213;28;20033;-49
2023/12/10 10:10:11;;;;;;;22.08;2.75;;;;;;;12.99;59.27;100651.72;5052671;28;20037;-47
2023/12/10 10:12:37;;;;;;;20.88;2.67;;;;;;;12.77;59.89;100644.72;5052237;28;20448;-47
2023/12/10 10:15:03;;;;;;;21.65;2.60;;;;;;;12.75;60.08;100642.09;5052753;28;20041;-49
2023/12/10 10:17:30;;;;;;;21.25;3.13;;;;;;;12.35;61.14;100651.63;5051791;28;20404;-46
2023/12/10 10:19:56;;;;;;;22.25;2.58;;;;;;;12.80;60.16;100647.34;5052376;28;20037;-49
2023/12/10 10:22:24;;;;;;;21.98;3.35;;;;;;;12.14;61.04;100659.41;5052113;28;20052;-46
2023/12/10 10:24:54;;;;;;;20.73;2.67;;;;;;;12.46;60.37;100649.03;5052648;28;20031;-44
2023/12/10 10:27:20;;;;;;;20.50;2.47;;;;;;;12.99;59.20;100646.50;5052280;28;20036;-44
2023/12/10 10:29:48;;;;;;;16.25;2.50;;;;;;;12.85;59.24;100646.50;5052598;28;20032;-44
2023/12/10 10:32:18;;;;;;;21.95;3.17;;;;;;;13.05;58.97;100640.38;5052247;28;20140;-49
2023/12/10 10:34:45;;;;;;;16.65;2.35;;;;;;;12.86;59.80;100635.16;5032502;28;20038;-44
2023/12/10 10:37:10;;;;;;;20.83;2.80;;;;;;;13.21;58.05;100632.53;5032650;28;20047;-49
2023/12/10 10:39:37;;;;;;;17.42;2.80;;;;;;;13.14;58.71;100627.31;5031779;28;20037;-44
2023/12/10 10:42:07;;;;;;;21.17;2.60;;;;;;;13.12;59.62;100642.09;5032568;28;20033;-48
2023/12/10 10:44:33;;;;;;;15.48;2.70;;;;;;;13.01;60.00;100626.41;5032036;28;20125;-46
2023/12/10 10:47:00;;;;;;;21.73;2.80;;;;;;;13.21;59.53;100615.97;5032450;28;20045;-44
2023/12/10 10:49:27;;;;;;;20.48;2.90;;;;;;;13.66;57.99;100615.00;5032061;28;20053;-46
2023/12/10 10:51:54;;;;;;;21.30;3.05;;;;;;;13.80;57.48;100607.94;5032091;28;20038;-45
2023/12/10 10:54:20;;;;;;;23.10;2.58;;;;;;;13.80;57.66;100605.31;5030076;28;20410;-47
2023/12/10 10:56:45;;;;;;;15.05;2.40;;;;;;;13.23;58.78;100615.09;5032161;28;20064;-49
2023/12/10 10:59:30;;;;;;;16.73;2.78;;;;;;;13.35;59.03;100611.59;5031653;28;20033;-48
2023/12/10 11:02:00;;;;;;;14.05;2.47;;;;;;;13.38;58.10;100596.72;5032265;28;20045;-44
2023/12/10 11:04:33;;;;;;;23.50;3.00;;;;;;;13.30;59.36;100592.38;5031482;28;20064;-47
2023/12/10 11:06:59;;;;;;;15.73;3.05;;;;;;;13.38;58.75;100594.13;5032209;28;20060;-45
2023/12/10 11:09:25;;;;;;;22.27;2.88;;;;;;;13.03;60.01;100601.13;5032212;28;20116;-44
2023/12/10 11:11:51;;;;;;;19.70;2.38;;;;;;;13.21;59.74;100593.28;5032918;28;20041;-44
2023/12/10 11:14:21;;;;;;;17.00;2.60;;;;;;;13.30;59.23;100584.53;5032441;28;20060;-44